Aviation Digital Data Service (ADDS)

Output produced by METARs form (1733 UTC 24 June 2019)
found at http://www.aviationweather.gov/metar/data/
 
METAR text: CYFC 241700Z AUTO 31009G15KT 270V360 9SM CLR 21/06 A2975 RMK SLP077 DENSITY ALT 900FT
Conditions at: CYFC (FREDERICTON AIRP, NB, CA) observed 1700 UTC 24 June 2019
Temperature: 21.0°C (70°F)
Dewpoint: 6.0°C (43°F) [RH = 38%]
Pressure (altimeter): 29.75 inches Hg (1007.5 mb)
[Sea-level pressure: 1007.7 mb]
Winds: from the NW (310 degrees) at 10 MPH (9 knots; 4.6 m/s)
gusting to 17 MPH (15 knots; 7.7 m/s)
Visibility: 9 miles (14 km)
Ceiling: at least 12,000 feet AGL
Clouds: sky clear below 12,000 feet AGL
Weather: no significant weather observed at this time

METAR text: CYFC 241629Z AUTO 32015KT 230V330 9SM CLR 20/06 A2976 RMK SLP079 DENSITY ALT 800FT
Conditions at: CYFC (FREDERICTON AIRP, NB, CA) observed 1629 UTC 24 June 2019
Temperature: 20.0°C (68°F)
Dewpoint: 6.0°C (43°F) [RH = 40%]
Pressure (altimeter): 29.76 inches Hg (1007.9 mb)
[Sea-level pressure: 1007.9 mb]
Winds: from the NW (320 degrees) at 17 MPH (15 knots; 7.7 m/s)
Visibility: 9 miles (14 km)
Ceiling: at least 12,000 feet AGL
Clouds: sky clear below 12,000 feet AGL
Weather: no significant weather observed at this time

METAR text: CYFC 241600Z AUTO 28005G17KT 200V330 9SM CLR 20/06 A2976 RMK SLP080 DENSITY ALT 700FT
Conditions at: CYFC (FREDERICTON AIRP, NB, CA) observed 1600 UTC 24 June 2019
Temperature: 20.0°C (68°F)
Dewpoint: 6.0°C (43°F) [RH = 40%]
Pressure (altimeter): 29.76 inches Hg (1007.9 mb)
[Sea-level pressure: 1008.0 mb]
Winds: from the W (280 degrees) at 6 MPH (5 knots; 2.6 m/s)
gusting to 20 MPH (17 knots; 8.7 m/s)
Visibility: 9 miles (14 km)
Ceiling: at least 12,000 feet AGL
Clouds: sky clear below 12,000 feet AGL
Weather: no significant weather observed at this time

METAR text: CYFC 241500Z AUTO 31011G16KT 9SM CLR 19/06 A2977 RMK SLP082 DENSITY ALT 600FT
Conditions at: CYFC (FREDERICTON AIRP, NB, CA) observed 1500 UTC 24 June 2019
Temperature: 19.0°C (66°F)
Dewpoint: 6.0°C (43°F) [RH = 43%]
Pressure (altimeter): 29.77 inches Hg (1008.2 mb)
[Sea-level pressure: 1008.2 mb]
Winds: from the NW (310 degrees) at 13 MPH (11 knots; 5.7 m/s)
gusting to 18 MPH (16 knots; 8.2 m/s)
Visibility: 9 miles (14 km)
Ceiling: at least 12,000 feet AGL
Clouds: sky clear below 12,000 feet AGL
Weather: no significant weather observed at this time

METAR text: CYFC 241400Z AUTO 32013KT 280V360 9SM CLR 17/06 A2978 RMK SLP085 DENSITY ALT 400FT
Conditions at: CYFC (FREDERICTON AIRP, NB, CA) observed 1400 UTC 24 June 2019
Temperature: 17.0°C (63°F)
Dewpoint: 6.0°C (43°F) [RH = 48%]
Pressure (altimeter): 29.78 inches Hg (1008.5 mb)
[Sea-level pressure: 1008.5 mb]
Winds: from the NW (320 degrees) at 15 MPH (13 knots; 6.7 m/s)
Visibility: 9 miles (14 km)
Ceiling: at least 12,000 feet AGL
Clouds: sky clear below 12,000 feet AGL
Weather: no significant weather observed at this time

METAR text: CYFC 241300Z AUTO 35009G15KT 9SM CLR 16/07 A2978 RMK SLP085 DENSITY ALT 300FT
Conditions at: CYFC (FREDERICTON AIRP, NB, CA) observed 1300 UTC 24 June 2019
Temperature: 16.0°C (61°F)
Dewpoint: 7.0°C (45°F) [RH = 55%]
Pressure (altimeter): 29.78 inches Hg (1008.5 mb)
[Sea-level pressure: 1008.5 mb]
Winds: from the N (350 degrees) at 10 MPH (9 knots; 4.6 m/s)
gusting to 17 MPH (15 knots; 7.7 m/s)
Visibility: 9 miles (14 km)
Ceiling: at least 12,000 feet AGL
Clouds: sky clear below 12,000 feet AGL
Weather: no significant weather observed at this time

METAR text: CYFC 241200Z AUTO 30009KT 9SM CLR 14/05 A2978 RMK SLP085 DENSITY ALT 100FT
Conditions at: CYFC (FREDERICTON AIRP, NB, CA) observed 1200 UTC 24 June 2019
Temperature: 14.0°C (57°F)
Dewpoint: 5.0°C (41°F) [RH = 55%]
Pressure (altimeter): 29.78 inches Hg (1008.5 mb)
[Sea-level pressure: 1008.5 mb]
Winds: from the WNW (300 degrees) at 10 MPH (9 knots; 4.6 m/s)
Visibility: 9 miles (14 km)
Ceiling: at least 12,000 feet AGL
Clouds: sky clear below 12,000 feet AGL
Weather: no significant weather observed at this time

METAR text: CYFC 241100Z AUTO 32008KT 9SM CLR 13/05 A2978 RMK SLP085
Conditions at: CYFC (FREDERICTON AIRP, NB, CA) observed 1100 UTC 24 June 2019
Temperature: 13.0°C (55°F)
Dewpoint: 5.0°C (41°F) [RH = 58%]
Pressure (altimeter): 29.78 inches Hg (1008.5 mb)
[Sea-level pressure: 1008.5 mb]
Winds: from the NW (320 degrees) at 9 MPH (8 knots; 4.1 m/s)
Visibility: 9 miles (14 km)
Ceiling: at least 12,000 feet AGL
Clouds: sky clear below 12,000 feet AGL
Weather: no significant weather observed at this time

METAR text: CYFC 241000Z AUTO 31007KT 9SM CLR 11/05 A2976 RMK SLP078
Conditions at: CYFC (FREDERICTON AIRP, NB, CA) observed 1000 UTC 24 June 2019
Temperature: 11.0°C (52°F)
Dewpoint: 5.0°C (41°F) [RH = 66%]
Pressure (altimeter): 29.76 inches Hg (1007.9 mb)
[Sea-level pressure: 1007.8 mb]
Winds: from the NW (310 degrees) at 8 MPH (7 knots; 3.6 m/s)
Visibility: 9 miles (14 km)
Ceiling: at least 12,000 feet AGL
Clouds: sky clear below 12,000 feet AGL
Weather: no significant weather observed at this time

METAR text: CYFC 240900Z AUTO 29006KT 9SM CLR 09/05 A2974 RMK SLP073
Conditions at: CYFC (FREDERICTON AIRP, NB, CA) observed 0900 UTC 24 June 2019
Temperature: 9.0°C (48°F)
Dewpoint: 5.0°C (41°F) [RH = 76%]
Pressure (altimeter): 29.74 inches Hg (1007.2 mb)
[Sea-level pressure: 1007.3 mb]
Winds: from the WNW (290 degrees) at 7 MPH (6 knots; 3.1 m/s)
Visibility: 9 miles (14 km)
Ceiling: at least 12,000 feet AGL
Clouds: sky clear below 12,000 feet AGL
Weather: no significant weather observed at this time

METAR text: CYFC 240800Z AUTO 28004KT 9SM CLR 09/04 A2972 RMK SLP064
Conditions at: CYFC (FREDERICTON AIRP, NB, CA) observed 0800 UTC 24 June 2019
Temperature: 9.0°C (48°F)
Dewpoint: 4.0°C (39°F) [RH = 71%]
Pressure (altimeter): 29.72 inches Hg (1006.5 mb)
[Sea-level pressure: 1006.4 mb]
Winds: from the W (280 degrees) at 5 MPH (4 knots; 2.1 m/s)
Visibility: 9 miles (14 km)
Ceiling: at least 12,000 feet AGL
Clouds: sky clear below 12,000 feet AGL
Weather: no significant weather observed at this time

METAR text: CYFC 240700Z AUTO 29006KT 9SM CLR 10/04 A2971 RMK SLP062
Conditions at: CYFC (FREDERICTON AIRP, NB, CA) observed 0700 UTC 24 June 2019
Temperature: 10.0°C (50°F)
Dewpoint: 4.0°C (39°F) [RH = 66%]
Pressure (altimeter): 29.71 inches Hg (1006.2 mb)
[Sea-level pressure: 1006.2 mb]
Winds: from the WNW (290 degrees) at 7 MPH (6 knots; 3.1 m/s)
Visibility: 9 miles (14 km)
Ceiling: at least 12,000 feet AGL
Clouds: sky clear below 12,000 feet AGL
Weather: no significant weather observed at this time

METAR text: CYFC 240600Z AUTO 30003KT 9SM CLR 10/05 A2970 RMK SLP060
Conditions at: CYFC (FREDERICTON AIRP, NB, CA) observed 0600 UTC 24 June 2019
Temperature: 10.0°C (50°F)
Dewpoint: 5.0°C (41°F) [RH = 71%]
Pressure (altimeter): 29.70 inches Hg (1005.8 mb)
[Sea-level pressure: 1006.0 mb]
Winds: from the WNW (300 degrees) at 3 MPH (3 knots; 1.5 m/s)
Visibility: 9 miles (14 km)
Ceiling: at least 12,000 feet AGL
Clouds: sky clear below 12,000 feet AGL
Weather: no significant weather observed at this time

METAR text: CYFC 240500Z AUTO 31006KT 9SM CLR 12/05 A2970 RMK SLP060
Conditions at: CYFC (FREDERICTON AIRP, NB, CA) observed 0500 UTC 24 June 2019
Temperature: 12.0°C (54°F)
Dewpoint: 5.0°C (41°F) [RH = 62%]
Pressure (altimeter): 29.70 inches Hg (1005.8 mb)
[Sea-level pressure: 1006.0 mb]
Winds: from the NW (310 degrees) at 7 MPH (6 knots; 3.1 m/s)
Visibility: 9 miles (14 km)
Ceiling: at least 12,000 feet AGL
Clouds: sky clear below 12,000 feet AGL
Weather: no significant weather observed at this time

METAR text: CYFC 240400Z AUTO 31005KT 9SM CLR 13/05 A2970 RMK SLP060
Conditions at: CYFC (FREDERICTON AIRP, NB, CA) observed 0400 UTC 24 June 2019
Temperature: 13.0°C (55°F)
Dewpoint: 5.0°C (41°F) [RH = 58%]
Pressure (altimeter): 29.70 inches Hg (1005.8 mb)
[Sea-level pressure: 1006.0 mb]
Winds: from the NW (310 degrees) at 6 MPH (5 knots; 2.6 m/s)
Visibility: 9 miles (14 km)
Ceiling: at least 12,000 feet AGL
Clouds: sky clear below 12,000 feet AGL
Weather: no significant weather observed at this time

METAR text: CYFC 240300Z AUTO 30004KT 9SM CLR 14/05 A2969 RMK SLP056 DENSITY ALT 200FT
Conditions at: CYFC (FREDERICTON AIRP, NB, CA) observed 0300 UTC 24 June 2019
Temperature: 14.0°C (57°F)
Dewpoint: 5.0°C (41°F) [RH = 55%]
Pressure (altimeter): 29.69 inches Hg (1005.5 mb)
[Sea-level pressure: 1005.6 mb]
Winds: from the WNW (300 degrees) at 5 MPH (4 knots; 2.1 m/s)
Visibility: 9 miles (14 km)
Ceiling: at least 12,000 feet AGL
Clouds: sky clear below 12,000 feet AGL
Weather: no significant weather observed at this time

METAR text: CYFC 240200Z AUTO 35002KT 9SM CLR 15/05 A2969 RMK SLP054 DENSITY ALT 300FT
Conditions at: CYFC (FREDERICTON AIRP, NB, CA) observed 0200 UTC 24 June 2019
Temperature: 15.0°C (59°F)
Dewpoint: 5.0°C (41°F) [RH = 51%]
Pressure (altimeter): 29.69 inches Hg (1005.5 mb)
[Sea-level pressure: 1005.4 mb]
Winds: from the N (350 degrees) at 2 MPH (2 knots; 1.0 m/s)
Visibility: 9 miles (14 km)
Ceiling: at least 12,000 feet AGL
Clouds: sky clear below 12,000 feet AGL
Weather: no significant weather observed at this time

METAR text: CYFC 240100Z AUTO 35009KT 9SM CLR 17/05 A2966 RMK SLP045 DENSITY ALT 600FT
Conditions at: CYFC (FREDERICTON AIRP, NB, CA) observed 0100 UTC 24 June 2019
Temperature: 17.0°C (63°F)
Dewpoint: 5.0°C (41°F) [RH = 45%]
Pressure (altimeter): 29.66 inches Hg (1004.5 mb)
[Sea-level pressure: 1004.5 mb]
Winds: from the N (350 degrees) at 10 MPH (9 knots; 4.6 m/s)
Visibility: 9 miles (14 km)
Ceiling: at least 12,000 feet AGL
Clouds: sky clear below 12,000 feet AGL
Weather: no significant weather observed at this time

METAR text: CYFC 240000Z AUTO 36010G16KT 9SM CLR 19/04 A2962 RMK SLP032 DENSITY ALT 900FT
Conditions at: CYFC (FREDERICTON AIRP, NB, CA) observed 0000 UTC 24 June 2019
Temperature: 19.0°C (66°F)
Dewpoint: 4.0°C (39°F) [RH = 37%]
Pressure (altimeter): 29.62 inches Hg (1003.1 mb)
[Sea-level pressure: 1003.2 mb]
Winds: from the N (360 degrees) at 12 MPH (10 knots; 5.1 m/s)
gusting to 18 MPH (16 knots; 8.2 m/s)
Visibility: 9 miles (14 km)
Ceiling: at least 12,000 feet AGL
Clouds: sky clear below 12,000 feet AGL
Weather: no significant weather observed at this time

METAR text: CYFC 232300Z AUTO 33015G23KT 9SM CLR 22/02 A2959 RMK SLP022 DENSITY ALT 1200FT
Conditions at: CYFC (FREDERICTON AIRP, NB, CA) observed 2300 UTC 23 June 2019
Temperature: 22.0°C (72°F)
Dewpoint: 2.0°C (36°F) [RH = 27%]
Pressure (altimeter): 29.59 inches Hg (1002.1 mb)
[Sea-level pressure: 1002.2 mb]
Winds: from the NNW (330 degrees) at 17 MPH (15 knots; 7.7 m/s)
gusting to 26 MPH (23 knots; 11.8 m/s)
Visibility: 9 miles (14 km)
Ceiling: at least 12,000 feet AGL
Clouds: sky clear below 12,000 feet AGL
Weather: no significant weather observed at this time

METAR text: CYFC 232200Z AUTO 34016G26KT 9SM CLR 23/03 A2956 RMK SLP011 DENSITY ALT 1400FT
Conditions at: CYFC (FREDERICTON AIRP, NB, CA) observed 2200 UTC 23 June 2019
Temperature: 23.0°C (73°F)
Dewpoint: 3.0°C (37°F) [RH = 27%]
Pressure (altimeter): 29.56 inches Hg (1001.1 mb)
[Sea-level pressure: 1001.1 mb]
Winds: from the NNW (340 degrees) at 18 MPH (16 knots; 8.2 m/s)
gusting to 30 MPH (26 knots; 13.4 m/s)
Visibility: 9 miles (14 km)
Ceiling: at least 12,000 feet AGL
Clouds: sky clear below 12,000 feet AGL
Weather: no significant weather observed at this time

METAR text: CYFC 232100Z AUTO 32015G26KT 9SM FEW095 24/04 A2954 RMK SLP003 DENSITY ALT 1600FT
Conditions at: CYFC (FREDERICTON AIRP, NB, CA) observed 2100 UTC 23 June 2019
Temperature: 24.0°C (75°F)
Dewpoint: 4.0°C (39°F) [RH = 27%]
Pressure (altimeter): 29.54 inches Hg (1000.4 mb)
[Sea-level pressure: 1000.3 mb]
Winds: from the NW (320 degrees) at 17 MPH (15 knots; 7.7 m/s)
gusting to 30 MPH (26 knots; 13.4 m/s)
Visibility: 9 miles (14 km)
Ceiling: at least 12,000 feet AGL
Clouds: few clouds at 9500 feet AGL
Weather: no significant weather observed at this time

METAR text: CYFC 232000Z AUTO 33018G28KT 9SM SCT095 25/05 A2952 RMK SLP998 DENSITY ALT 1700FT
Conditions at: CYFC (FREDERICTON AIRP, NB, CA) observed 2000 UTC 23 June 2019
Temperature: 25.0°C (77°F)
Dewpoint: 5.0°C (41°F) [RH = 28%]
Pressure (altimeter): 29.52 inches Hg (999.7 mb)
[Sea-level pressure:  999.8 mb]
Winds: from the NNW (330 degrees) at 21 MPH (18 knots; 9.3 m/s)
gusting to 32 MPH (28 knots; 14.4 m/s)
Visibility: 9 miles (14 km)
Ceiling: at least 12,000 feet AGL
Clouds: scattered clouds at 9500 feet AGL
Weather: no significant weather observed at this time

METAR text: CYFC 231900Z AUTO 31020G31KT 280V340 9SM CLR 25/06 A2951 RMK SLP995 DENSITY ALT 1700FT
Conditions at: CYFC (FREDERICTON AIRP, NB, CA) observed 1900 UTC 23 June 2019
Temperature: 25.0°C (77°F)
Dewpoint: 6.0°C (43°F) [RH = 30%]
Pressure (altimeter): 29.51 inches Hg (999.4 mb)
[Sea-level pressure:  999.5 mb]
Winds: from the NW (310 degrees) at 23 MPH (20 knots; 10.3 m/s)
gusting to 36 MPH (31 knots; 15.9 m/s)
Visibility: 9 miles (14 km)
Ceiling: at least 12,000 feet AGL
Clouds: sky clear below 12,000 feet AGL
Weather: no significant weather observed at this time

METAR text: CYFC 231800Z AUTO 32019G29KT 9SM FEW080 25/07 A2952 RMK SLP999 DENSITY ALT 1600FT
Conditions at: CYFC (FREDERICTON AIRP, NB, CA) observed 1800 UTC 23 June 2019
Temperature: 25.0°C (77°F)
Dewpoint: 7.0°C (45°F) [RH = 32%]
Pressure (altimeter): 29.52 inches Hg (999.7 mb)
[Sea-level pressure:  999.9 mb]
Winds: from the NW (320 degrees) at 22 MPH (19 knots; 9.8 m/s)
gusting to 33 MPH (29 knots; 14.9 m/s)
Visibility: 9 miles (14 km)
Ceiling: at least 12,000 feet AGL
Clouds: few clouds at 8000 feet AGL
Weather: no significant weather observed at this time

METAR text: CYFC 231700Z AUTO 29014G25KT 260V320 9SM CLR 24/05 A2955 RMK SLP007 DENSITY ALT 1500FT
Conditions at: CYFC (FREDERICTON AIRP, NB, CA) observed 1700 UTC 23 June 2019
Temperature: 24.0°C (75°F)
Dewpoint: 5.0°C (41°F) [RH = 29%]
Pressure (altimeter): 29.55 inches Hg (1000.8 mb)
[Sea-level pressure: 1000.7 mb]
Winds: from the WNW (290 degrees) at 16 MPH (14 knots; 7.2 m/s)
gusting to 29 MPH (25 knots; 12.9 m/s)
Visibility: 9 miles (14 km)
Ceiling: at least 12,000 feet AGL
Clouds: sky clear below 12,000 feet AGL
Weather: no significant weather observed at this time

METAR text: CYFC 231600Z AUTO 32016G25KT 9SM CLR 24/07 A2956 RMK SLP012 DENSITY ALT 1400FT
Conditions at: CYFC (FREDERICTON AIRP, NB, CA) observed 1600 UTC 23 June 2019
Temperature: 24.0°C (75°F)
Dewpoint: 7.0°C (45°F) [RH = 34%]
Pressure (altimeter): 29.56 inches Hg (1001.1 mb)
[Sea-level pressure: 1001.2 mb]
Winds: from the NW (320 degrees) at 18 MPH (16 knots; 8.2 m/s)
gusting to 29 MPH (25 knots; 12.9 m/s)
Visibility: 9 miles (14 km)
Ceiling: at least 12,000 feet AGL
Clouds: sky clear below 12,000 feet AGL
Weather: no significant weather observed at this time

METAR text: CYFC 231500Z AUTO 28011G25KT 260V330 9SM CLR 23/08 A2957 RMK SLP016 DENSITY ALT 1300FT
Conditions at: CYFC (FREDERICTON AIRP, NB, CA) observed 1500 UTC 23 June 2019
Temperature: 23.0°C (73°F)
Dewpoint: 8.0°C (46°F) [RH = 38%]
Pressure (altimeter): 29.57 inches Hg (1001.4 mb)
[Sea-level pressure: 1001.6 mb]
Winds: from the W (280 degrees) at 13 MPH (11 knots; 5.7 m/s)
gusting to 29 MPH (25 knots; 12.9 m/s)
Visibility: 9 miles (14 km)
Ceiling: at least 12,000 feet AGL
Clouds: sky clear below 12,000 feet AGL
Weather: no significant weather observed at this time

METAR text: CYFC 231400Z AUTO 26013G18KT 9SM CLR 22/11 A2959 RMK SLP021 DENSITY ALT 1200FT
Conditions at: CYFC (FREDERICTON AIRP, NB, CA) observed 1400 UTC 23 June 2019
Temperature: 22.0°C (72°F)
Dewpoint: 11.0°C (52°F) [RH = 50%]
Pressure (altimeter): 29.59 inches Hg (1002.1 mb)
[Sea-level pressure: 1002.1 mb]
Winds: from the W (260 degrees) at 15 MPH (13 knots; 6.7 m/s)
gusting to 21 MPH (18 knots; 9.3 m/s)
Visibility: 9 miles (14 km)
Ceiling: at least 12,000 feet AGL
Clouds: sky clear below 12,000 feet AGL
Weather: no significant weather observed at this time

METAR text: CYFC 231300Z AUTO 29012G19KT 250V310 9SM CLR 21/11 A2960 RMK SLP026 DENSITY ALT 1000FT
Conditions at: CYFC (FREDERICTON AIRP, NB, CA) observed 1300 UTC 23 June 2019
Temperature: 21.0°C (70°F)
Dewpoint: 11.0°C (52°F) [RH = 53%]
Pressure (altimeter): 29.60 inches Hg (1002.5 mb)
[Sea-level pressure: 1002.6 mb]
Winds: from the WNW (290 degrees) at 14 MPH (12 knots; 6.2 m/s)
gusting to 22 MPH (19 knots; 9.8 m/s)
Visibility: 9 miles (14 km)
Ceiling: at least 12,000 feet AGL
Clouds: sky clear below 12,000 feet AGL
Weather: no significant weather observed at this time

METAR text: CYFC 231200Z AUTO 30011G18KT 9SM SCT075 19/10 A2961 RMK SLP028 DENSITY ALT 900FT
Conditions at: CYFC (FREDERICTON AIRP, NB, CA) observed 1200 UTC 23 June 2019
Temperature: 19.0°C (66°F)
Dewpoint: 10.0°C (50°F) [RH = 56%]
Pressure (altimeter): 29.61 inches Hg (1002.8 mb)
[Sea-level pressure: 1002.8 mb]
Winds: from the WNW (300 degrees) at 13 MPH (11 knots; 5.7 m/s)
gusting to 21 MPH (18 knots; 9.3 m/s)
Visibility: 9 miles (14 km)
Ceiling: at least 12,000 feet AGL
Clouds: scattered clouds at 7500 feet AGL
Weather: no significant weather observed at this time

METAR text: CYFC 231100Z AUTO 28006KT 250V320 9SM CLR 17/09 A2962 RMK SLP030 DENSITY ALT 600FT
Conditions at: CYFC (FREDERICTON AIRP, NB, CA) observed 1100 UTC 23 June 2019
Temperature: 17.0°C (63°F)
Dewpoint: 9.0°C (48°F) [RH = 59%]
Pressure (altimeter): 29.62 inches Hg (1003.1 mb)
[Sea-level pressure: 1003.0 mb]
Winds: from the W (280 degrees) at 7 MPH (6 knots; 3.1 m/s)
Visibility: 9 miles (14 km)
Ceiling: at least 12,000 feet AGL
Clouds: sky clear below 12,000 feet AGL
Weather: no significant weather observed at this time

METAR text: CYFC 231000Z AUTO 28007KT 9SM CLR 15/08 A2960 RMK SLP025 DENSITY ALT 400FT
Conditions at: CYFC (FREDERICTON AIRP, NB, CA) observed 1000 UTC 23 June 2019
Temperature: 15.0°C (59°F)
Dewpoint: 8.0°C (46°F) [RH = 63%]
Pressure (altimeter): 29.60 inches Hg (1002.5 mb)
[Sea-level pressure: 1002.5 mb]
Winds: from the W (280 degrees) at 8 MPH (7 knots; 3.6 m/s)
Visibility: 9 miles (14 km)
Ceiling: at least 12,000 feet AGL
Clouds: sky clear below 12,000 feet AGL
Weather: no significant weather observed at this time

METAR text: CYFC 230900Z AUTO 27005KT 9SM CLR 13/08 A2959 RMK SLP022 DENSITY ALT 100FT
Conditions at: CYFC (FREDERICTON AIRP, NB, CA) observed 0900 UTC 23 June 2019
Temperature: 13.0°C (55°F)
Dewpoint: 8.0°C (46°F) [RH = 72%]
Pressure (altimeter): 29.59 inches Hg (1002.1 mb)
[Sea-level pressure: 1002.2 mb]
Winds: from the W (270 degrees) at 6 MPH (5 knots; 2.6 m/s)
Visibility: 9 miles (14 km)
Ceiling: at least 12,000 feet AGL
Clouds: sky clear below 12,000 feet AGL
Weather: no significant weather observed at this time

METAR text: CYFC 230800Z AUTO 28006KT 9SM CLR 13/07 A2959 RMK SLP021 DENSITY ALT 200FT
Conditions at: CYFC (FREDERICTON AIRP, NB, CA) observed 0800 UTC 23 June 2019
Temperature: 13.0°C (55°F)
Dewpoint: 7.0°C (45°F) [RH = 67%]
Pressure (altimeter): 29.59 inches Hg (1002.1 mb)
[Sea-level pressure: 1002.1 mb]
Winds: from the W (280 degrees) at 7 MPH (6 knots; 3.1 m/s)
Visibility: 9 miles (14 km)
Ceiling: at least 12,000 feet AGL
Clouds: sky clear below 12,000 feet AGL
Weather: no significant weather observed at this time

METAR text: CYFC 230700Z AUTO 27003KT 9SM CLR 14/08 A2959 RMK SLP020 DENSITY ALT 300FT
Conditions at: CYFC (FREDERICTON AIRP, NB, CA) observed 0700 UTC 23 June 2019
Temperature: 14.0°C (57°F)
Dewpoint: 8.0°C (46°F) [RH = 67%]
Pressure (altimeter): 29.59 inches Hg (1002.1 mb)
[Sea-level pressure: 1002.0 mb]
Winds: from the W (270 degrees) at 3 MPH (3 knots; 1.5 m/s)
Visibility: 9 miles (14 km)
Ceiling: at least 12,000 feet AGL
Clouds: sky clear below 12,000 feet AGL
Weather: no significant weather observed at this time

METAR text: CYFC 230600Z AUTO 28004KT 9SM CLR 14/08 A2959 RMK SLP021 DENSITY ALT 200FT
Conditions at: CYFC (FREDERICTON AIRP, NB, CA) observed 0600 UTC 23 June 2019
Temperature: 14.0°C (57°F)
Dewpoint: 8.0°C (46°F) [RH = 67%]
Pressure (altimeter): 29.59 inches Hg (1002.1 mb)
[Sea-level pressure: 1002.1 mb]
Winds: from the W (280 degrees) at 5 MPH (4 knots; 2.1 m/s)
Visibility: 9 miles (14 km)
Ceiling: at least 12,000 feet AGL
Clouds: sky clear below 12,000 feet AGL
Weather: no significant weather observed at this time

Forecast for: CYFC (FREDERICTON AIRP, NB, CA)
Text: TAF CYFC 241138Z 2412/2424 32008KT P6SM FEW080
Forecast period: 1200 to 1300 UTC 24 June 2019
Forecast type: FROM: standard forecast or significant change
Winds: from the NW (320 degrees) at 9 MPH (8 knots; 4.1 m/s)
Visibility: 6 or more miles 10+ km)
Ceiling: at least 12,000 feet AGL
Clouds: few clouds at 8000 feet AGL
Weather: no significant weather forecast for this period
Text: BECMG 2413/2415 32010G20KT
Forecast period: 1300 to 1800 UTC 24 June 2019
Forecast type: BECOMING: Conditions expected to become as follows by 1500 UTC 24 June 2019
Winds: from the NW (320 degrees) at 12 MPH (10 knots; 5.1 m/s)
gusting to 23 MPH (20 knots; 10.3 m/s)
Visibility: 6 or more miles 10+ km)
Ceiling: at least 12,000 feet AGL
Clouds: few clouds at 8000 feet AGL
Weather: no significant weather forecast for this period
Text: FM241800 32010KT P6SM SCT060 RMK FCST BASED ON AUTO OBS. NXT FCST BY 241800Z
Forecast period: 1800 UTC 24 June 2019 to 0000 UTC 25 June 2019
Forecast type: FROM: standard forecast or significant change
Winds: from the NW (320 degrees) at 12 MPH (10 knots; 5.1 m/s)
Visibility: 6 or more miles 10+ km)
Ceiling: at least 12,000 feet AGL
Clouds: scattered clouds at 6000 feet AGL
Weather: no significant weather forecast for this period